createdAt,value
2017-07-26T00:01:06.960Z,0
2017-07-26T00:02:19.517Z,0
2017-07-26T00:03:32.132Z,0
2017-07-26T00:04:44.753Z,0
2017-07-26T00:05:57.361Z,0
2017-07-26T00:07:09.896Z,0
2017-07-26T00:08:22.510Z,0
2017-07-26T00:09:34.783Z,0
2017-07-26T00:10:47.388Z,0
2017-07-26T00:12:00.025Z,0
2017-07-26T00:13:12.662Z,0
2017-07-26T00:14:25.264Z,0
2017-07-26T00:15:37.847Z,0
2017-07-26T00:16:50.443Z,0
2017-07-26T00:18:03.021Z,0
2017-07-26T00:19:15.625Z,0
2017-07-26T00:20:28.211Z,0
2017-07-26T00:21:40.846Z,0
2017-07-26T00:22:53.387Z,0
2017-07-26T00:24:05.991Z,0
2017-07-26T00:25:18.595Z,0
2017-07-26T00:26:31.174Z,0
2017-07-26T00:27:43.798Z,0
2017-07-26T00:28:56.417Z,0
2017-07-26T00:30:09.018Z,0
2017-07-26T00:31:21.594Z,0
2017-07-26T00:32:34.178Z,0
2017-07-26T00:33:46.725Z,0
2017-07-26T00:34:59.319Z,0
2017-07-26T00:36:11.926Z,0
2017-07-26T00:37:24.488Z,0
2017-07-26T00:38:37.120Z,0
2017-07-26T00:39:49.679Z,0
2017-07-26T00:41:02.325Z,0
2017-07-26T00:42:14.570Z,0
2017-07-26T00:43:27.117Z,0
2017-07-26T00:44:39.744Z,0
2017-07-26T00:45:52.359Z,0
2017-07-26T00:47:04.629Z,0
2017-07-26T00:48:16.926Z,0
2017-07-26T00:49:29.497Z,0
2017-07-26T00:50:42.117Z,0
2017-07-26T00:51:54.941Z,0
2017-07-26T00:53:07.231Z,0
2017-07-26T00:54:19.583Z,0
2017-07-26T00:55:32.151Z,0
2017-07-26T00:56:44.699Z,0
2017-07-26T00:57:56.967Z,0
2017-07-26T00:59:09.613Z,0
2017-07-26T01:00:21.864Z,0
2017-07-26T01:01:34.411Z,0
2017-07-26T01:02:46.958Z,0
2017-07-26T01:03:59.580Z,0
2017-07-26T01:05:12.193Z,0
2017-07-26T01:06:24.781Z,0
2017-07-26T01:07:37.335Z,0
2017-07-26T01:08:49.582Z,0
2017-07-26T01:10:02.125Z,0
2017-07-26T01:11:14.428Z,0
2017-07-26T01:12:27.031Z,0
2017-07-26T01:13:39.640Z,0
2017-07-26T01:14:52.266Z,0
2017-07-26T01:16:04.888Z,0
2017-07-26T01:17:17.202Z,0
2017-07-26T01:18:29.760Z,0
2017-07-26T01:19:42.319Z,0
2017-07-26T01:20:54.877Z,0
2017-07-26T01:22:07.185Z,0
2017-07-26T01:23:19.457Z,0
2017-07-26T01:24:31.738Z,0
2017-07-26T01:25:44.333Z,0
2017-07-26T01:26:56.622Z,0
2017-07-26T01:28:09.218Z,0
2017-07-26T01:29:21.814Z,0
2017-07-26T01:30:34.091Z,0
2017-07-26T01:31:46.658Z,0
2017-07-26T01:32:59.223Z,0
2017-07-26T01:34:11.893Z,0
2017-07-26T01:35:24.456Z,0
2017-07-26T01:36:36.736Z,0
2017-07-26T01:37:49.317Z,0
2017-07-26T01:39:01.596Z,0
2017-07-26T01:40:13.842Z,0
2017-07-26T01:41:26.450Z,0
2017-07-26T01:42:39.041Z,0
2017-07-26T01:43:51.619Z,0
2017-07-26T01:45:04.215Z,0
2017-07-26T01:46:16.829Z,0
2017-07-26T01:47:29.387Z,0
2017-07-26T01:48:42.051Z,0
2017-07-26T01:49:54.616Z,0
2017-07-26T01:51:07.229Z,0
2017-07-26T01:52:19.518Z,0
2017-07-26T01:53:31.824Z,0
2017-07-26T01:54:44.400Z,0
2017-07-26T01:55:56.648Z,0
2017-07-26T01:57:09.223Z,0
2017-07-26T01:58:21.524Z,0
2017-07-26T01:59:34.085Z,0
2017-07-26T02:00:46.705Z,0
2017-07-26T02:01:59.212Z,0
2017-07-26T02:03:11.796Z,0
2017-07-26T02:04:24.094Z,0
2017-07-26T02:05:36.353Z,0
2017-07-26T02:06:48.992Z,0
2017-07-26T02:08:01.599Z,0
2017-07-26T02:09:14.229Z,0
2017-07-26T02:10:26.808Z,0
2017-07-26T02:11:39.094Z,0
2017-07-26T02:12:51.688Z,0
2017-07-26T02:14:04.492Z,0
2017-07-26T02:15:16.774Z,0
2017-07-26T02:16:29.080Z,0
2017-07-26T02:17:41.622Z,0
2017-07-26T02:18:53.620Z,0
2017-07-26T02:20:05.268Z,0
2017-07-26T02:21:17.897Z,0
2017-07-26T02:22:30.497Z,0
2017-07-26T02:23:43.131Z,0
2017-07-26T02:24:55.688Z,0
2017-07-26T02:26:08.326Z,0
2017-07-26T02:27:20.647Z,0
2017-07-26T02:28:33.253Z,0
2017-07-26T02:29:45.809Z,0
2017-07-26T02:30:58.330Z,0
2017-07-26T02:32:10.286Z,0
2017-07-26T02:33:22.906Z,0
2017-07-26T02:34:35.219Z,0
2017-07-26T02:35:47.811Z,0
2017-07-26T02:37:00.083Z,0
2017-07-26T02:38:12.729Z,0
2017-07-26T02:39:25.260Z,0
2017-07-26T02:40:37.547Z,0
2017-07-26T02:41:50.215Z,0
2017-07-26T02:43:02.811Z,0
2017-07-26T02:44:15.359Z,0
2017-07-26T02:45:27.668Z,0
2017-07-26T02:46:40.332Z,0
2017-07-26T02:47:52.931Z,4
2017-07-26T02:49:05.241Z,4
2017-07-26T02:50:17.255Z,4
2017-07-26T02:51:30.069Z,4
2017-07-26T02:52:42.386Z,4
2017-07-26T02:53:54.927Z,4
2017-07-26T02:55:07.213Z,4
2017-07-26T02:56:19.860Z,4
2017-07-26T02:57:32.425Z,4
2017-07-26T02:58:45.009Z,8
2017-07-26T02:59:57.596Z,4
2017-07-26T03:01:09.893Z,8
2017-07-26T03:02:22.172Z,8
2017-07-26T03:03:34.746Z,12
2017-07-26T03:04:47.345Z,16
2017-07-26T03:05:59.867Z,20
2017-07-26T03:07:12.132Z,24
2017-07-26T03:08:24.774Z,24
2017-07-26T03:09:37.065Z,28
2017-07-26T03:10:49.604Z,28
2017-07-26T03:12:02.293Z,32
2017-07-26T03:13:14.585Z,36
2017-07-26T03:14:26.532Z,36
2017-07-26T03:15:39.088Z,40
2017-07-26T03:16:51.746Z,44
2017-07-26T03:18:04.418Z,48
2017-07-26T03:19:17.001Z,48
2017-07-26T03:20:29.310Z,60
2017-07-26T03:21:41.909Z,76
2017-07-26T03:22:54.456Z,92
2017-07-26T03:24:07.279Z,104
2017-07-26T03:25:19.231Z,108
2017-07-26T03:26:31.608Z,116
2017-07-26T03:27:44.280Z,128
2017-07-26T03:28:56.584Z,136
2017-07-26T03:30:09.173Z,152
2017-07-26T03:31:21.764Z,176
2017-07-26T03:32:34.062Z,228
2017-07-26T03:33:46.652Z,288
2017-07-26T03:34:59.270Z,344
2017-07-26T03:36:11.868Z,392
2017-07-26T03:37:24.209Z,432
2017-07-26T03:38:36.810Z,444
2017-07-26T03:39:49.136Z,416
2017-07-26T03:41:01.452Z,364
2017-07-26T03:42:14.024Z,340
2017-07-26T03:43:26.063Z,384
2017-07-26T03:44:38.336Z,480
2017-07-26T03:45:50.911Z,568
2017-07-26T03:47:03.546Z,628
2017-07-26T03:48:15.771Z,768
2017-07-26T03:49:28.313Z,956
2017-07-26T03:50:40.884Z,1088
2017-07-26T03:51:53.404Z,1132
2017-07-26T03:53:05.993Z,1068
2017-07-26T03:54:18.548Z,1092
2017-07-26T03:55:31.149Z,1112
2017-07-26T03:56:44.053Z,1152
2017-07-26T03:57:56.643Z,1120
2017-07-26T03:59:08.860Z,1132
2017-07-26T04:00:21.406Z,1148
2017-07-26T04:01:33.678Z,1076
2017-07-26T04:02:46.278Z,960
2017-07-26T04:03:58.918Z,896
2017-07-26T04:05:11.186Z,840
2017-07-26T04:06:23.405Z,768
2017-07-26T04:07:35.700Z,792
2017-07-26T04:08:48.246Z,772
2017-07-26T04:10:00.516Z,812
2017-07-26T04:11:12.519Z,892
2017-07-26T04:12:25.085Z,856
2017-07-26T04:13:37.611Z,808
2017-07-26T04:14:50.212Z,832
2017-07-26T04:16:02.521Z,836
2017-07-26T04:17:14.793Z,780
2017-07-26T04:18:27.019Z,784
2017-07-26T04:19:39.684Z,768
2017-07-26T04:20:51.967Z,652
2017-07-26T04:22:04.577Z,732
2017-07-26T04:23:17.103Z,780
2017-07-26T04:24:29.678Z,932
2017-07-26T04:25:42.343Z,1060
2017-07-26T04:26:54.942Z,1140
2017-07-26T04:28:07.563Z,1180
2017-07-26T04:29:20.109Z,1296
2017-07-26T04:30:32.674Z,1380
2017-07-26T04:31:45.272Z,1464
2017-07-26T04:32:57.858Z,1568
2017-07-26T04:34:10.122Z,1592
2017-07-26T04:35:22.784Z,1540
2017-07-26T04:36:35.110Z,1552
2017-07-26T04:37:47.709Z,1576
2017-07-26T04:39:00.250Z,1536
2017-07-26T04:40:12.715Z,1284
2017-07-26T04:41:25.317Z,1152
2017-07-26T04:42:37.889Z,1052
2017-07-26T04:43:50.118Z,1004
2017-07-26T04:45:02.705Z,964
2017-07-26T04:46:14.733Z,1024
2017-07-26T04:47:27.042Z,1064
2017-07-26T04:48:39.292Z,1120
2017-07-26T04:49:51.909Z,1216
2017-07-26T04:51:04.181Z,1412
2017-07-26T04:52:16.702Z,1524
2017-07-26T04:53:28.711Z,1300
2017-07-26T04:54:41.335Z,1220
2017-07-26T04:55:53.365Z,1200
2017-07-26T04:57:05.933Z,1128
2017-07-26T04:58:18.504Z,1040
2017-07-26T04:59:31.067Z,1120
2017-07-26T05:00:43.353Z,1140
2017-07-26T05:01:55.969Z,1156
2017-07-26T05:03:08.592Z,1140
2017-07-26T05:04:20.951Z,1356
2017-07-26T05:05:33.505Z,1476
2017-07-26T05:06:46.053Z,1344
2017-07-26T05:07:58.932Z,1532
2017-07-26T05:09:11.543Z,1704
2017-07-26T05:10:23.794Z,1816
2017-07-26T05:11:36.069Z,1892
2017-07-26T05:12:48.680Z,1672
2017-07-26T05:14:01.240Z,1352
2017-07-26T05:15:13.847Z,1352
2017-07-26T05:16:26.516Z,1424
2017-07-26T05:17:39.119Z,1320
2017-07-26T05:18:51.715Z,1200
2017-07-26T05:20:04.331Z,1376
2017-07-26T05:21:16.652Z,1348
2017-07-26T05:22:28.938Z,1284
2017-07-26T05:23:41.544Z,1400
2017-07-26T05:24:54.121Z,1356
2017-07-26T05:26:06.720Z,1476
2017-07-26T05:27:19.343Z,1768
2017-07-26T05:28:31.380Z,2088
2017-07-26T05:29:44.015Z,2512
2017-07-26T05:30:56.594Z,2372
2017-07-26T05:32:09.176Z,2164
2017-07-26T05:33:21.743Z,2160
2017-07-26T05:34:34.357Z,2228
2017-07-26T05:35:46.933Z,2288
2017-07-26T05:36:59.538Z,2124
2017-07-26T05:38:11.820Z,1900
2017-07-26T05:39:24.464Z,1632
2017-07-26T05:40:37.035Z,1704
2017-07-26T05:41:49.337Z,1784
2017-07-26T05:43:01.964Z,2036
2017-07-26T05:44:14.566Z,2932
2017-07-26T05:45:27.076Z,3888
2017-07-26T05:46:39.598Z,4620
2017-07-26T05:47:51.893Z,4788
2017-07-26T05:49:04.503Z,5048
2017-07-26T05:50:17.110Z,4876
2017-07-26T05:51:29.374Z,5788
2017-07-26T05:52:41.908Z,5988
2017-07-26T05:53:54.247Z,5700
2017-07-26T05:55:06.868Z,5540
2017-07-26T05:56:19.119Z,5796
2017-07-26T05:57:31.760Z,6424
2017-07-26T05:58:44.385Z,6524
2017-07-26T05:59:56.451Z,6800
2017-07-26T06:01:09.016Z,7312
2017-07-26T06:02:21.588Z,6544
2017-07-26T06:03:33.839Z,6668
2017-07-26T06:04:46.429Z,6656
2017-07-26T06:05:58.685Z,6432
2017-07-26T06:07:10.950Z,6344
2017-07-26T06:08:22.923Z,6068
2017-07-26T06:09:35.553Z,6440
2017-07-26T06:10:47.582Z,6512
2017-07-26T06:11:59.548Z,6108
2017-07-26T06:13:11.812Z,5404
2017-07-26T06:14:24.371Z,5080
2017-07-26T06:15:36.598Z,5440
2017-07-26T06:16:48.905Z,5364
2017-07-26T06:18:01.414Z,4548
2017-07-26T06:19:13.756Z,3980
2017-07-26T06:20:26.333Z,3276
2017-07-26T06:21:38.948Z,2820
2017-07-26T06:22:51.548Z,2292
2017-07-26T06:24:03.618Z,2200
2017-07-26T06:25:16.186Z,1972
2017-07-26T06:26:28.805Z,2100
2017-07-26T06:27:41.405Z,3320
2017-07-26T06:28:53.790Z,3536
2017-07-26T06:30:06.369Z,3420
2017-07-26T06:31:18.917Z,3544
2017-07-26T06:32:31.191Z,3992
2017-07-26T06:33:43.788Z,3512
2017-07-26T06:34:56.310Z,3440
2017-07-26T06:36:08.604Z,3904
2017-07-26T06:37:20.880Z,4360
2017-07-26T06:38:33.522Z,4908
2017-07-26T06:39:46.347Z,5200
2017-07-26T06:40:58.334Z,5764
2017-07-26T06:42:10.602Z,5920
2017-07-26T06:43:23.154Z,6284
2017-07-26T06:44:35.793Z,6152
2017-07-26T06:45:48.094Z,4988
2017-07-26T06:47:00.747Z,4580
2017-07-26T06:48:13.418Z,4040
2017-07-26T06:49:25.989Z,4444
2017-07-26T06:50:38.255Z,4320
2017-07-26T06:51:50.559Z,4488
2017-07-26T06:53:03.106Z,4252
2017-07-26T06:54:15.437Z,4124
2017-07-26T06:55:28.008Z,3944
2017-07-26T06:56:40.607Z,4300
2017-07-26T06:57:53.152Z,4428
2017-07-26T06:59:05.470Z,4416
2017-07-26T07:00:17.392Z,3620
2017-07-26T07:01:30.019Z,4996
2017-07-26T07:02:42.338Z,4864
2017-07-26T07:03:54.581Z,5664
2017-07-26T07:05:07.196Z,5584
2017-07-26T07:06:19.541Z,6924
2017-07-26T07:07:32.191Z,5796
2017-07-26T07:08:44.473Z,6868
2017-07-26T07:09:56.458Z,6472
2017-07-26T07:11:08.679Z,5648
2017-07-26T07:12:21.201Z,6384
2017-07-26T07:13:33.478Z,6196
2017-07-26T07:14:46.070Z,7232
2017-07-26T07:15:58.328Z,9180
2017-07-26T07:17:10.889Z,8664
2017-07-26T07:18:23.183Z,6640
2017-07-26T07:19:35.751Z,6248
2017-07-26T07:20:48.013Z,9540
2017-07-26T07:22:00.601Z,10704
2017-07-26T07:23:13.231Z,10612
2017-07-26T07:24:25.487Z,9916
2017-07-26T07:25:38.062Z,11968
2017-07-26T07:26:50.677Z,8868
2017-07-26T07:28:03.271Z,6412
2017-07-26T07:29:15.635Z,5764
2017-07-26T07:30:28.287Z,6628
2017-07-26T07:31:40.921Z,7004
2017-07-26T07:32:53.528Z,6572
2017-07-26T07:34:05.850Z,6492
2017-07-26T07:35:18.473Z,5420
2017-07-26T07:36:31.070Z,6356
2017-07-26T07:37:43.371Z,8060
2017-07-26T07:38:56.030Z,6352
2017-07-26T07:40:08.563Z,6248
2017-07-26T07:41:20.503Z,6488
2017-07-26T07:42:32.449Z,7884
2017-07-26T07:43:44.724Z,7632
2017-07-26T07:44:57.315Z,6740
2017-07-26T07:46:09.942Z,8696
2017-07-26T07:47:22.258Z,7176
2017-07-26T07:48:34.554Z,7120
2017-07-26T07:49:47.124Z,5608
2017-07-26T07:50:59.720Z,6752
2017-07-26T07:52:12.006Z,5896
2017-07-26T07:53:24.672Z,5964
2017-07-26T07:54:37.314Z,6396
2017-07-26T07:55:49.903Z,6160
2017-07-26T07:57:02.175Z,5500
2017-07-26T07:58:14.134Z,4844
2017-07-26T07:59:26.466Z,6120
2017-07-26T08:00:39.078Z,5860
2017-07-26T08:01:51.061Z,6204
2017-07-26T08:03:03.679Z,6112
2017-07-26T08:04:16.201Z,6992
2017-07-26T08:05:28.438Z,8412
2017-07-26T08:06:40.992Z,7940
2017-07-26T08:07:53.564Z,5528
2017-07-26T08:09:05.491Z,4824
2017-07-26T08:10:17.832Z,6340
2017-07-26T08:11:30.348Z,6468
2017-07-26T08:12:42.363Z,6508
2017-07-26T08:13:54.967Z,4944
2017-07-26T08:15:07.264Z,8216
2017-07-26T08:16:19.189Z,6804
2017-07-26T08:17:31.721Z,5720
2017-07-26T08:18:44.343Z,7700
2017-07-26T08:19:56.932Z,5196
2017-07-26T08:21:09.567Z,5580
2017-07-26T08:22:22.132Z,5876
2017-07-26T08:23:34.713Z,8116
2017-07-26T08:24:47.264Z,6496
2017-07-26T08:25:59.604Z,6156
2017-07-26T08:27:11.896Z,6812
2017-07-26T08:28:24.174Z,7480
2017-07-26T08:29:36.714Z,5248
2017-07-26T08:30:48.690Z,6916
2017-07-26T08:32:00.955Z,6680
2017-07-26T08:33:13.576Z,4848
2017-07-26T08:34:26.171Z,4968
2017-07-26T08:35:38.769Z,4984
2017-07-26T08:36:51.401Z,6064
2017-07-26T08:38:04.035Z,5316
2017-07-26T08:39:16.888Z,6444
2017-07-26T08:40:28.855Z,7772
2017-07-26T08:41:41.429Z,6824
2017-07-26T08:42:53.730Z,7368
2017-07-26T08:44:05.689Z,7460
2017-07-26T08:45:17.987Z,8336
2017-07-26T08:46:29.956Z,7460
2017-07-26T08:47:42.556Z,9312
2017-07-26T08:48:55.177Z,9408
2017-07-26T08:50:07.489Z,5268
2017-07-26T08:51:20.078Z,6076
2017-07-26T08:52:32.643Z,8476
2017-07-26T08:53:45.238Z,6812
2017-07-26T08:54:57.819Z,5908
2017-07-26T08:56:10.135Z,7216
2017-07-26T08:57:22.675Z,8308
2017-07-26T08:58:34.941Z,8956
2017-07-26T08:59:47.529Z,9288
2017-07-26T09:01:00.150Z,10792
2017-07-26T09:02:12.111Z,10644
2017-07-26T09:03:24.409Z,10672
2017-07-26T09:04:36.727Z,9472
2017-07-26T09:05:49.058Z,8484
2017-07-26T09:07:01.639Z,9604
2017-07-26T09:08:14.214Z,8552
2017-07-26T09:09:26.808Z,11140
2017-07-26T09:10:39.381Z,8400
2017-07-26T09:11:51.646Z,8736
2017-07-26T09:13:03.918Z,8368
2017-07-26T09:14:16.243Z,8460
2017-07-26T09:15:28.812Z,9048
2017-07-26T09:16:41.397Z,8140
2017-07-26T09:17:53.929Z,7616
2017-07-26T09:19:06.227Z,8952
2017-07-26T09:20:18.797Z,8620
2017-07-26T09:21:31.038Z,9596
2017-07-26T09:22:43.633Z,7548
2017-07-26T09:23:56.241Z,8132
2017-07-26T09:25:08.806Z,9704
2017-07-26T09:26:21.388Z,9840
2017-07-26T09:27:33.693Z,7420
2017-07-26T09:28:46.089Z,9008
2017-07-26T09:29:58.326Z,10500
2017-07-26T09:31:10.562Z,10260
2017-07-26T09:32:22.511Z,11716
2017-07-26T09:33:34.773Z,13428
2017-07-26T09:34:47.368Z,11440
2017-07-26T09:35:59.638Z,11540
2017-07-26T09:37:12.286Z,11988
2017-07-26T09:38:24.882Z,12196
2017-07-26T09:39:37.452Z,11908
2017-07-26T09:40:49.734Z,11448
2017-07-26T09:42:01.765Z,11508
2017-07-26T09:43:14.330Z,10940
2017-07-26T09:44:26.947Z,10164
2017-07-26T09:45:39.581Z,8492
2017-07-26T09:46:52.152Z,10664
2017-07-26T09:48:04.705Z,8012
2017-07-26T09:49:16.975Z,9936
2017-07-26T09:50:29.533Z,9412
2017-07-26T09:51:42.139Z,8908
2017-07-26T09:52:54.759Z,9640
2017-07-26T09:54:07.358Z,8728
2017-07-26T09:55:19.640Z,10436
2017-07-26T09:56:31.945Z,8600
2017-07-26T09:57:44.497Z,7880
2017-07-26T09:58:56.811Z,7484
2017-07-26T10:00:09.069Z,7392
2017-07-26T10:01:21.696Z,7480
2017-07-26T10:02:34.260Z,7164
2017-07-26T10:03:46.853Z,8392
2017-07-26T10:04:59.477Z,9256
2017-07-26T10:06:12.123Z,10756
2017-07-26T10:07:24.457Z,10672
2017-07-26T10:08:36.981Z,10948
2017-07-26T10:09:49.550Z,11380
2017-07-26T10:11:01.869Z,11936
2017-07-26T10:12:14.471Z,12724
2017-07-26T10:13:26.737Z,11984
2017-07-26T10:14:39.351Z,10092
2017-07-26T10:15:51.890Z,10116
2017-07-26T10:17:04.236Z,11352
2017-07-26T10:18:16.874Z,9668
2017-07-26T10:19:29.492Z,9460
2017-07-26T10:20:42.062Z,6668
2017-07-26T10:21:54.583Z,8348
2017-07-26T10:23:06.847Z,7364
2017-07-26T10:24:19.425Z,7828
2017-07-26T10:25:32.053Z,9604
2017-07-26T10:26:44.641Z,6636
2017-07-26T10:27:57.291Z,7460
2017-07-26T10:29:09.609Z,8012
2017-07-26T10:30:21.911Z,8648
2017-07-26T10:31:34.476Z,9764
2017-07-26T10:32:46.739Z,9348
2017-07-26T10:33:59.360Z,7252
2017-07-26T10:35:11.944Z,6832
2017-07-26T10:36:24.186Z,7144
2017-07-26T10:37:36.736Z,7468
2017-07-26T10:38:49.277Z,8176
2017-07-26T10:40:01.305Z,7768
2017-07-26T10:41:13.843Z,8120
2017-07-26T10:42:26.466Z,9816
2017-07-26T10:43:39.045Z,9596
2017-07-26T10:44:51.342Z,11584
2017-07-26T10:46:03.676Z,9184
2017-07-26T10:47:16.284Z,8840
2017-07-26T10:48:28.599Z,9004
2017-07-26T10:49:40.876Z,10540
2017-07-26T10:50:53.193Z,9164
2017-07-26T10:52:05.792Z,9516
2017-07-26T10:53:18.458Z,9708
2017-07-26T10:54:30.766Z,8784
2017-07-26T10:55:42.999Z,9360
2017-07-26T10:56:54.989Z,8440
2017-07-26T10:58:07.272Z,9352
2017-07-26T10:59:19.275Z,7692
2017-07-26T11:00:31.864Z,8440
2017-07-26T11:01:43.825Z,8424
2017-07-26T11:02:56.077Z,7080
2017-07-26T11:04:08.671Z,9992
2017-07-26T11:05:21.240Z,8952
2017-07-26T11:06:33.858Z,9612
2017-07-26T11:07:46.414Z,8564
2017-07-26T11:08:59.036Z,9508
2017-07-26T11:10:11.569Z,9564
2017-07-26T11:11:24.117Z,8132
2017-07-26T11:12:36.612Z,8308
2017-07-26T11:13:48.575Z,8852
2017-07-26T11:15:00.855Z,6928
2017-07-26T11:16:13.175Z,7712
2017-07-26T11:17:25.471Z,6800
2017-07-26T11:18:38.067Z,6592
2017-07-26T11:19:50.654Z,5684
2017-07-26T11:21:03.286Z,6452
2017-07-26T11:22:15.559Z,7716
2017-07-26T11:23:27.836Z,7112
2017-07-26T11:24:40.413Z,7376
2017-07-26T11:25:52.999Z,7336
2017-07-26T11:27:05.568Z,7060
2017-07-26T11:28:18.114Z,6628
2017-07-26T11:29:30.387Z,7312
2017-07-26T11:30:42.975Z,6288
2017-07-26T11:31:55.544Z,5848
2017-07-26T11:33:08.117Z,6164
2017-07-26T11:34:20.063Z,6552
2017-07-26T11:35:32.660Z,7036
2017-07-26T11:36:44.880Z,5876
2017-07-26T11:37:57.457Z,6436
2017-07-26T11:39:10.089Z,6896
2017-07-26T11:40:22.404Z,7164
2017-07-26T11:41:34.413Z,6796
2017-07-26T11:42:46.416Z,6024
2017-07-26T11:43:58.736Z,5932
2017-07-26T11:45:10.694Z,5832
2017-07-26T11:46:22.989Z,6328
2017-07-26T11:47:34.986Z,6452
2017-07-26T11:48:47.595Z,6020
2017-07-26T11:49:59.863Z,4896
2017-07-26T11:51:12.448Z,4204
2017-07-26T11:52:24.763Z,3944
2017-07-26T11:53:37.123Z,4572
2017-07-26T11:54:49.382Z,5252
2017-07-26T11:56:01.977Z,5944
2017-07-26T11:57:14.238Z,4844
2017-07-26T11:58:26.507Z,5744
2017-07-26T11:59:39.044Z,7860
2017-07-26T12:00:51.615Z,8360
2017-07-26T12:02:04.196Z,7568
2017-07-26T12:03:16.467Z,7080
2017-07-26T12:04:28.123Z,5924
2017-07-26T12:05:40.114Z,6828
2017-07-26T12:06:52.692Z,6036
2017-07-26T12:08:05.323Z,4816
2017-07-26T12:09:17.631Z,6724
2017-07-26T12:10:29.848Z,7588
2017-07-26T12:11:41.579Z,8528
2017-07-26T12:12:54.133Z,8348
2017-07-26T12:14:06.709Z,10104
2017-07-26T12:15:19.011Z,8464
2017-07-26T12:16:30.724Z,9748
2017-07-26T12:17:43.290Z,8428
2017-07-26T12:18:55.873Z,9776
2017-07-26T12:20:08.470Z,6260
2017-07-26T12:21:21.004Z,5572
2017-07-26T12:22:33.276Z,6312
2017-07-26T12:23:45.902Z,6276
2017-07-26T12:24:57.945Z,5592
2017-07-26T12:26:10.296Z,6372
2017-07-26T12:27:22.884Z,6136
2017-07-26T12:28:35.389Z,6964
2017-07-26T12:29:47.951Z,6800
2017-07-26T12:31:00.550Z,8528
2017-07-26T12:32:12.961Z,6128
2017-07-26T12:33:25.264Z,9328
2017-07-26T12:34:37.841Z,9548
2017-07-26T12:35:49.806Z,9480
2017-07-26T12:37:02.394Z,8172
2017-07-26T12:38:15.246Z,9004
2017-07-26T12:39:27.518Z,9292
2017-07-26T12:40:40.088Z,11848
2017-07-26T12:41:52.660Z,10220
2017-07-26T12:43:04.921Z,8348
2017-07-26T12:44:16.606Z,10604
2017-07-26T12:45:28.590Z,9132
2017-07-26T12:46:40.549Z,8616
2017-07-26T12:47:52.891Z,7404
2017-07-26T12:49:05.496Z,6380
2017-07-26T12:50:18.062Z,5732
2017-07-26T12:51:30.328Z,5776
2017-07-26T12:52:42.865Z,6532
2017-07-26T12:53:55.483Z,6448
2017-07-26T12:55:08.112Z,6088
2017-07-26T12:56:20.739Z,6444
2017-07-26T12:57:33.007Z,5444
2017-07-26T12:58:44.992Z,6556
2017-07-26T12:59:57.599Z,5976
2017-07-26T13:01:09.620Z,7276
2017-07-26T13:02:22.202Z,7528
2017-07-26T13:03:34.810Z,8748
2017-07-26T13:04:47.383Z,7972
2017-07-26T13:05:59.710Z,6200
2017-07-26T13:07:12.060Z,6296
2017-07-26T13:08:24.353Z,8944
2017-07-26T13:09:36.571Z,7924
2017-07-26T13:10:49.162Z,9364
2017-07-26T13:12:01.433Z,6840
2017-07-26T13:13:14.011Z,6420
2017-07-26T13:14:26.250Z,7132
2017-07-26T13:15:38.821Z,6488
2017-07-26T13:16:51.342Z,8340
2017-07-26T13:18:03.564Z,8424
2017-07-26T13:19:15.808Z,8556
2017-07-26T13:20:28.103Z,8760
2017-07-26T13:21:40.406Z,7220
2017-07-26T13:22:53.026Z,10100
2017-07-26T13:24:05.328Z,8480
2017-07-26T13:25:17.315Z,9116
2017-07-26T13:26:29.637Z,8872
2017-07-26T13:27:41.887Z,9828
2017-07-26T13:28:54.225Z,7268
2017-07-26T13:30:06.477Z,7020
2017-07-26T13:31:18.810Z,7540
2017-07-26T13:32:31.430Z,7064
2017-07-26T13:33:43.782Z,7312
2017-07-26T13:34:56.159Z,9084
2017-07-26T13:36:08.411Z,7340
2017-07-26T13:37:20.032Z,5940
2017-07-26T13:38:32.610Z,5564
2017-07-26T13:39:44.861Z,7612
2017-07-26T13:40:56.542Z,6240
2017-07-26T13:42:08.883Z,6396
2017-07-26T13:43:20.899Z,8044
2017-07-26T13:44:32.889Z,7920
2017-07-26T13:45:44.867Z,5432
2017-07-26T13:46:57.165Z,6784
2017-07-26T13:48:09.438Z,8792
2017-07-26T13:49:21.692Z,8868
2017-07-26T13:50:33.951Z,7792
2017-07-26T13:51:45.980Z,6316
2017-07-26T13:52:58.580Z,5180
2017-07-26T13:54:11.245Z,5840
2017-07-26T13:55:22.903Z,5800
2017-07-26T13:56:35.500Z,4856
2017-07-26T13:57:48.157Z,6444
2017-07-26T13:59:00.429Z,4912
2017-07-26T14:00:12.120Z,4424
2017-07-26T14:01:24.068Z,4900
2017-07-26T14:02:36.447Z,5304
2017-07-26T14:03:49.032Z,3672
2017-07-26T14:05:01.638Z,4328
2017-07-26T14:06:13.925Z,3536
2017-07-26T14:07:25.900Z,3576
2017-07-26T14:08:38.166Z,4584
2017-07-26T14:09:50.762Z,5320
2017-07-26T14:11:03.034Z,3828
2017-07-26T14:12:15.670Z,4564
2017-07-26T14:13:27.975Z,4556
2017-07-26T14:14:40.547Z,4232
2017-07-26T14:15:53.142Z,4836
2017-07-26T14:17:05.730Z,5044
2017-07-26T14:18:18.033Z,4372
2017-07-26T14:19:30.269Z,5004
2017-07-26T14:20:42.925Z,3904
2017-07-26T14:21:55.487Z,4500
2017-07-26T14:23:07.993Z,4760
2017-07-26T14:24:20.339Z,5844
2017-07-26T14:25:32.909Z,6536
2017-07-26T14:26:45.155Z,6500
2017-07-26T14:27:57.736Z,5336
2017-07-26T14:29:10.062Z,5108
2017-07-26T14:30:22.371Z,5024
2017-07-26T14:31:34.625Z,4432
2017-07-26T14:32:47.259Z,5432
2017-07-26T14:33:59.912Z,6128
2017-07-26T14:35:12.528Z,4752
2017-07-26T14:36:25.078Z,4988
2017-07-26T14:37:37.341Z,4904
2017-07-26T14:38:49.995Z,5120
2017-07-26T14:40:02.563Z,5100
2017-07-26T14:41:15.105Z,6504
2017-07-26T14:42:27.062Z,6356
2017-07-26T14:43:39.679Z,4132
2017-07-26T14:44:52.246Z,6528
2017-07-26T14:46:04.738Z,6840
2017-07-26T14:47:17.400Z,5292
2017-07-26T14:48:28.757Z,4296
2017-07-26T14:49:41.026Z,4376
2017-07-26T14:50:53.597Z,3968
2017-07-26T14:52:05.871Z,3364
2017-07-26T14:53:18.207Z,3552
2017-07-26T14:54:30.549Z,4812
2017-07-26T14:55:43.182Z,3708
2017-07-26T14:56:55.727Z,4616
2017-07-26T14:58:08.298Z,4284
2017-07-26T14:59:20.819Z,4924
2017-07-26T15:00:33.374Z,3936
2017-07-26T15:01:45.678Z,4476
2017-07-26T15:02:58.281Z,4464
2017-07-26T15:04:10.219Z,3756
2017-07-26T15:05:22.275Z,4256
2017-07-26T15:06:34.573Z,4288
2017-07-26T15:07:47.190Z,3380
2017-07-26T15:08:59.735Z,3344
2017-07-26T15:10:12.399Z,3356
2017-07-26T15:11:24.671Z,3120
2017-07-26T15:12:36.961Z,2448
2017-07-26T15:13:49.545Z,2428
2017-07-26T15:15:02.169Z,2232
2017-07-26T15:16:14.515Z,1980
2017-07-26T15:17:27.143Z,2652
2017-07-26T15:18:39.403Z,3444
2017-07-26T15:19:51.675Z,3508
2017-07-26T15:21:03.982Z,2772
2017-07-26T15:22:16.566Z,2916
2017-07-26T15:23:29.168Z,2748
2017-07-26T15:24:41.433Z,2924
2017-07-26T15:25:54.057Z,2384
2017-07-26T15:27:06.335Z,2328
2017-07-26T15:28:18.600Z,1936
2017-07-26T15:29:30.591Z,1496
2017-07-26T15:30:43.193Z,1564
2017-07-26T15:31:55.858Z,1812
2017-07-26T15:33:07.830Z,1652
2017-07-26T15:34:19.457Z,2204
2017-07-26T15:35:32.028Z,1348
2017-07-26T15:36:44.650Z,1672
2017-07-26T15:37:57.249Z,2004
2017-07-26T15:39:09.834Z,2280
2017-07-26T15:40:22.129Z,2300
2017-07-26T15:41:34.651Z,1940
2017-07-26T15:42:47.288Z,1724
2017-07-26T15:43:59.897Z,2036
2017-07-26T15:45:12.514Z,2764
2017-07-26T15:46:24.790Z,3260
2017-07-26T15:47:37.371Z,4440
2017-07-26T15:48:49.633Z,3724
2017-07-26T15:50:02.251Z,3200
2017-07-26T15:51:14.843Z,3064
2017-07-26T15:52:26.816Z,3732
2017-07-26T15:53:39.409Z,4216
2017-07-26T15:54:51.984Z,5300
2017-07-26T15:56:04.288Z,4364
2017-07-26T15:57:16.596Z,5264
2017-07-26T15:58:28.544Z,3872
2017-07-26T15:59:41.196Z,3480
2017-07-26T16:00:53.478Z,3488
2017-07-26T16:02:06.113Z,3808
2017-07-26T16:03:18.108Z,4696
2017-07-26T16:04:30.378Z,5356
2017-07-26T16:05:42.743Z,7800
2017-07-26T16:06:55.326Z,4472
2017-07-26T16:08:07.964Z,4632
2017-07-26T16:09:19.957Z,4156
2017-07-26T16:10:31.955Z,5320
2017-07-26T16:11:44.525Z,4928
2017-07-26T16:12:57.157Z,4984
2017-07-26T16:14:09.674Z,5368
2017-07-26T16:15:21.943Z,5024
2017-07-26T16:16:33.930Z,5276
2017-07-26T16:17:46.559Z,4672
2017-07-26T16:18:59.100Z,4752
2017-07-26T16:20:11.702Z,4208
2017-07-26T16:21:24.201Z,4288
2017-07-26T16:22:36.512Z,3416
2017-07-26T16:23:48.832Z,3180